Time;durP1;ratioP1;P1;durP2;ratioP2;P2;SDS_P1;SDS_P2;PMS_P1;PMS_P2;Temp;Humidity;BMP_temperature;BMP_pressure;BME280_temperature;BME280_humidity;BME280_pressure;Samples;Min_cycle;Max_cycle;Signal;HPM_P1;HPM_P2
2022/12/24 00:02:13;;;;;;;8.00;2.77;;;14.40;99.90;;;;;;5020474;28;20182;-63
2022/12/24 00:04:38;;;;;;;7.83;2.13;;;14.50;99.90;;;;;;5020409;28;20438;-63
2022/12/24 00:07:04;;;;;;;8.10;2.97;;;14.50;99.90;;;;;;5017496;28;20219;-63
2022/12/24 00:09:29;;;;;;;6.90;2.30;;;14.50;99.90;;;;;;5019426;28;20195;-63
2022/12/24 00:11:55;;;;;;;11.70;3.80;;;14.50;99.90;;;;;;5014278;28;20673;-63
2022/12/24 00:14:21;;;;;;;10.60;2.80;;;14.50;99.90;;;;;;5013579;28;20277;-62
2022/12/24 00:16:46;;;;;;;14.73;3.50;;;14.40;99.90;;;;;;5017552;28;20204;-65
2022/12/24 00:19:12;;;;;;;7.60;2.77;;;14.40;99.90;;;;;;5009683;28;20785;-66
2022/12/24 00:21:38;;;;;;;7.20;2.50;;;14.30;99.90;;;;;;5012797;28;20192;-66
2022/12/24 00:24:04;;;;;;;9.37;2.57;;;14.30;99.90;;;;;;5008937;28;20217;-66
2022/12/24 00:26:33;;;;;;;6.43;2.33;;;14.30;99.90;;;;;;5019080;28;20204;-66
2022/12/24 00:28:59;;;;;;;7.73;2.57;;;14.20;99.90;;;;;;5014884;28;20580;-66
2022/12/24 00:31:25;;;;;;;5.83;2.30;;;14.10;99.90;;;;;;5008644;28;20443;-65
2022/12/24 00:33:51;;;;;;;10.93;3.00;;;14.10;99.90;;;;;;5010436;28;20533;-66
2022/12/24 00:36:18;;;;;;;7.03;2.40;;;14.10;99.90;;;;;;5018214;28;20593;-65
2022/12/24 00:38:44;;;;;;;10.23;3.00;;;14.10;99.90;;;;;;5003176;28;20177;-66
2022/12/24 00:41:23;;;;;;;16.13;2.90;;;14.00;99.90;;;;;;5016307;28;20439;-66
2022/12/24 00:43:59;;;;;;;11.07;3.50;;;14.00;99.90;;;;;;5008099;28;20801;-65
2022/12/24 00:46:27;;;;;;;11.20;3.10;;;13.90;99.90;;;;;;4997897;28;20469;-65
2022/12/24 00:48:53;;;;;;;7.23;3.83;;;13.80;99.90;;;;;;5014771;28;20431;-66
2022/12/24 00:51:19;;;;;;;12.10;3.30;;;13.70;99.90;;;;;;5019624;28;20951;-66
2022/12/24 00:53:45;;;;;;;10.97;3.00;;;13.70;99.90;;;;;;5017274;28;20459;-66
2022/12/24 00:56:10;;;;;;;6.50;2.80;;;13.80;99.90;;;;;;5013714;28;21032;-66
2022/12/24 00:58:36;;;;;;;8.70;2.77;;;13.80;99.90;;;;;;5018161;28;20609;-66
2022/12/24 01:01:02;;;;;;;9.27;2.83;;;13.90;99.90;;;;;;5017630;28;20207;-66
2022/12/24 01:03:34;;;;;;;9.20;2.93;;;14.00;99.90;;;;;;5019792;28;20430;-65
2022/12/24 01:06:04;;;;;;;11.00;2.70;;;14.00;99.90;;;;;;5015395;28;20209;-66
2022/12/24 01:08:30;;;;;;;8.47;2.63;;;13.80;99.90;;;;;;5018235;28;20441;-66
2022/12/24 01:10:56;;;;;;;7.23;2.87;;;13.70;99.90;;;;;;5016581;28;20436;-66
2022/12/24 01:13:22;;;;;;;13.93;4.40;;;13.70;99.90;;;;;;5014437;28;20518;-66
2022/12/24 01:15:48;;;;;;;7.67;2.53;;;13.70;99.90;;;;;;5017863;28;20200;-65
2022/12/24 01:18:13;;;;;;;7.60;2.40;;;13.70;99.90;;;;;;5015040;28;20439;-66
2022/12/24 01:20:39;;;;;;;7.93;2.53;;;13.60;99.90;;;;;;5016571;28;20180;-66
2022/12/24 01:23:04;;;;;;;9.97;3.20;;;13.60;99.90;;;;;;5011370;28;20279;-66
2022/12/24 01:25:30;;;;;;;11.27;3.60;;;13.70;99.90;;;;;;5014247;28;20289;-66
2022/12/24 01:27:56;;;;;;;7.23;2.40;;;13.60;99.90;;;;;;5016376;28;20196;-66
2022/12/24 01:30:21;;;;;;;10.87;2.30;;;13.60;99.90;;;;;;5018270;28;20280;-66
2022/12/24 01:32:47;;;;;;;10.57;2.60;;;13.60;99.90;;;;;;5017431;28;20259;-66
2022/12/24 01:35:12;;;;;;;9.77;3.43;;;13.50;99.90;;;;;;5019952;28;20184;-66
2022/12/24 01:37:38;;;;;;;8.87;2.70;;;13.50;99.90;;;;;;5021092;28;20258;-66
2022/12/24 01:45:42;;;;;;;6.60;2.20;;;13.60;99.90;;;;;;5015251;28;20606;-65
2022/12/24 01:48:16;;;;;;;11.40;3.90;;;13.50;99.90;;;;;;5021681;28;20439;-65
2022/12/24 01:50:42;;;;;;;10.73;3.07;;;13.50;99.90;;;;;;5019674;28;20447;-65
2022/12/24 01:53:09;;;;;;;10.93;3.77;;;13.50;99.90;;;;;;5017482;28;20467;-65
2022/12/24 01:55:35;;;;;;;9.27;2.47;;;13.50;99.90;;;;;;5017671;28;20477;-65
2022/12/24 01:58:04;;;;;;;6.93;2.97;;;13.50;99.90;;;;;;5023866;28;20510;-65
2022/12/24 02:00:29;;;;;;;9.57;3.37;;;13.50;99.90;;;;;;5024880;28;20424;-65
2022/12/24 02:02:55;;;;;;;8.83;2.60;;;13.50;99.90;;;;;;5023359;28;20441;-65
2022/12/24 02:05:29;;;;;;;12.00;2.63;;;13.40;99.90;;;;;;5017135;28;20657;-65
2022/12/24 02:07:55;;;;;;;9.03;3.03;;;13.40;99.90;;;;;;5020714;28;20172;-65
2022/12/24 02:10:21;;;;;;;7.33;2.40;;;13.40;99.90;;;;;;5025025;28;20836;-65
2022/12/24 02:12:48;;;;;;;12.73;3.17;;;13.50;99.90;;;;;;5021283;28;21006;-66
2022/12/24 02:15:17;;;;;;;10.70;3.37;;;13.40;99.90;;;;;;5018811;28;20573;-65
2022/12/24 02:18:02;;;;;;;12.43;3.20;;;13.50;99.90;;;;;;5026281;28;20449;-66
2022/12/24 02:20:39;;;;;;;12.80;3.93;;;13.50;99.90;;;;;;5023848;28;20438;-65
2022/12/24 02:23:33;;;;;;;6.67;2.77;;;13.50;99.90;;;;;;5017483;28;20512;-65
2022/12/24 02:26:28;;;;;;;6.10;2.30;;;13.50;99.90;;;;;;5018324;28;20545;-66
2022/12/24 02:29:24;;;;;;;10.77;4.07;;;13.60;99.90;;;;;;5014997;28;20964;-66
2022/12/24 02:32:00;;;;;;;7.47;2.37;;;13.60;99.90;;;;;;5017454;28;20791;-65
2022/12/24 02:34:50;;;;;;;9.03;3.40;;;13.60;99.90;;;;;;5020290;28;21019;-67
2022/12/24 02:37:21;;;;;;;9.60;2.83;;;13.70;99.90;;;;;;5013660;28;20472;-65
2022/12/24 02:40:00;;;;;;;10.00;3.07;;;13.60;99.90;;;;;;5018683;28;20522;-65
2022/12/24 02:42:31;;;;;;;13.60;3.20;;;13.70;99.90;;;;;;5018614;28;20438;-65
2022/12/24 02:45:16;;;;;;;7.83;2.90;;;13.70;99.90;;;;;;5019630;28;20680;-65
2022/12/24 02:47:44;;;;;;;9.60;3.00;;;13.70;99.90;;;;;;5016146;28;20460;-65
2022/12/24 02:50:12;;;;;;;10.47;3.07;;;13.80;99.90;;;;;;5017717;28;20459;-66
2022/12/24 02:52:40;;;;;;;6.50;2.80;;;13.80;99.90;;;;;;5022974;28;21032;-65
2022/12/24 02:55:16;;;;;;;12.70;3.60;;;13.80;99.90;;;;;;5023897;28;20435;-65
2022/12/24 02:58:19;;;;;;;11.00;2.80;;;13.80;99.90;;;;;;5016657;28;20433;-65
2022/12/24 03:01:15;;;;;;;9.63;2.47;;;13.80;99.90;;;;;;5015721;28;20415;-66
2022/12/24 03:04:09;;;;;;;8.97;3.20;;;13.90;99.90;;;;;;5016866;28;20509;-65
2022/12/24 03:06:51;;;;;;;11.60;2.90;;;13.80;99.90;;;;;;5017266;28;20486;-65
2022/12/24 03:09:26;;;;;;;7.97;2.93;;;13.80;99.90;;;;;;5016827;28;20423;-65
2022/12/24 03:12:07;;;;;;;12.80;3.57;;;13.70;99.90;;;;;;5016605;28;20440;-65
2022/12/24 03:14:33;;;;;;;8.73;2.97;;;13.80;99.90;;;;;;5011961;28;20446;-65
2022/12/24 03:17:02;;;;;;;13.63;3.40;;;13.90;99.90;;;;;;5016758;28;20463;-65
2022/12/24 03:19:29;;;;;;;11.67;3.87;;;13.80;99.90;;;;;;5018209;28;20442;-65
2022/12/24 03:21:58;;;;;;;7.87;3.47;;;13.80;99.90;;;;;;5014668;28;20777;-65
2022/12/24 03:24:23;;;;;;;16.20;3.40;;;13.80;99.90;;;;;;5016782;28;20876;-65
2022/12/24 03:26:50;;;;;;;13.73;3.33;;;13.90;99.90;;;;;;5022645;28;20593;-65
2022/12/24 03:29:17;;;;;;;13.70;3.60;;;13.80;99.90;;;;;;5017132;28;20313;-65
2022/12/24 03:31:48;;;;;;;13.97;3.80;;;13.80;99.90;;;;;;5014770;28;20476;-65
2022/12/24 03:34:15;;;;;;;16.70;3.20;;;13.80;99.90;;;;;;5015910;28;20565;-65
2022/12/24 03:36:41;;;;;;;8.83;2.97;;;13.80;99.90;;;;;;5019317;28;21191;-65
2022/12/24 03:39:08;;;;;;;11.80;3.00;;;13.80;99.90;;;;;;5015206;28;20478;-65
2022/12/24 03:41:34;;;;;;;7.20;3.10;;;13.70;99.90;;;;;;5018879;28;20434;-65
2022/12/24 03:44:00;;;;;;;10.07;3.50;;;13.70;99.90;;;;;;5014210;28;20439;-66
2022/12/24 03:46:26;;;;;;;12.03;3.43;;;13.60;99.90;;;;;;5017341;28;20468;-66
2022/12/24 03:48:52;;;;;;;8.37;3.10;;;13.50;99.90;;;;;;5013629;28;20904;-65
2022/12/24 03:51:20;;;;;;;10.53;3.40;;;13.60;99.90;;;;;;5017267;28;20196;-67
2022/12/24 03:53:46;;;;;;;15.10;3.57;;;13.60;99.90;;;;;;5013536;28;20216;-65
2022/12/24 03:56:12;;;;;;;14.03;4.47;;;13.60;99.90;;;;;;5016044;28;20462;-65
2022/12/24 03:58:37;;;;;;;14.20;4.13;;;13.50;99.90;;;;;;5018629;28;20180;-65
2022/12/24 04:01:03;;;;;;;11.77;3.10;;;13.60;99.90;;;;;;5016787;28;20701;-65
2022/12/24 04:03:29;;;;;;;20.47;3.70;;;13.60;99.90;;;;;;5015220;28;20370;-65
2022/12/24 04:06:07;;;;;;;9.53;3.07;;;13.60;99.90;;;;;;5014938;28;20200;-65
2022/12/24 04:08:33;;;;;;;13.93;3.77;;;13.40;99.90;;;;;;5019185;28;20184;-66
2022/12/24 04:10:59;;;;;;;14.70;3.33;;;13.40;99.90;;;;;;5018110;28;20474;-65
2022/12/24 04:13:25;;;;;;;12.47;3.67;;;13.40;99.90;;;;;;5013603;28;21126;-65
2022/12/24 04:16:03;;;;;;;21.77;3.90;;;13.40;99.90;;;;;;5018946;28;20878;-65
2022/12/24 04:18:29;;;;;;;14.33;3.70;;;13.40;99.90;;;;;;5017022;28;20713;-65
2022/12/24 04:20:55;;;;;;;17.07;4.20;;;13.40;99.90;;;;;;5015130;28;20440;-65
2022/12/24 04:23:21;;;;;;;11.53;3.47;;;13.30;99.90;;;;;;5016105;28;20729;-65
2022/12/24 04:25:46;;;;;;;13.77;4.53;;;13.30;99.90;;;;;;5018617;28;20558;-65
2022/12/24 04:28:12;;;;;;;12.63;4.20;;;13.30;99.90;;;;;;5021996;28;20187;-66
2022/12/24 04:30:39;;;;;;;9.73;2.77;;;13.30;99.90;;;;;;5023254;28;20183;-65
2022/12/24 04:33:04;;;;;;;9.10;3.53;;;13.30;99.90;;;;;;5015149;28;20470;-65
2022/12/24 04:35:30;;;;;;;15.30;3.40;;;13.30;99.90;;;;;;5015324;28;20460;-65
2022/12/24 04:37:56;;;;;;;9.90;3.20;;;13.40;99.90;;;;;;5013731;28;20198;-65
2022/12/24 04:40:21;;;;;;;13.33;3.90;;;13.30;99.90;;;;;;5009033;28;20865;-65
2022/12/24 04:42:48;;;;;;;13.63;3.13;;;13.20;99.90;;;;;;5016451;28;20189;-65
2022/12/24 04:45:13;;;;;;;13.30;3.17;;;13.30;99.90;;;;;;5011695;28;20569;-65
2022/12/24 04:47:39;;;;;;;10.27;3.57;;;13.30;99.90;;;;;;5013184;28;20447;-65
2022/12/24 04:50:05;;;;;;;23.03;4.63;;;13.30;99.90;;;;;;5013233;28;20658;-65
2022/12/24 04:52:32;;;;;;;14.03;3.77;;;13.20;99.90;;;;;;5012828;28;20209;-65
2022/12/24 04:54:57;;;;;;;9.80;3.60;;;13.20;99.90;;;;;;5010417;28;20469;-64
2022/12/24 04:57:23;;;;;;;9.23;3.20;;;13.20;99.90;;;;;;5010781;28;20798;-65
2022/12/24 04:59:48;;;;;;;16.30;3.53;;;13.20;99.90;;;;;;5009461;28;20239;-65
2022/12/24 05:02:14;;;;;;;15.30;4.77;;;13.30;99.90;;;;;;5011081;28;20264;-65
2022/12/24 05:04:39;;;;;;;11.47;2.70;;;13.30;99.90;;;;;;5011437;28;20188;-64
2022/12/24 05:07:05;;;;;;;10.27;2.80;;;13.30;99.90;;;;;;5009996;28;20208;-65
2022/12/24 05:09:30;;;;;;;13.03;3.30;;;13.30;99.90;;;;;;5006827;28;20181;-66
2022/12/24 05:11:56;;;;;;;13.17;3.60;;;13.30;99.90;;;;;;5007407;28;20188;-66
2022/12/24 05:14:22;;;;;;;6.53;3.13;;;13.40;99.90;;;;;;5007277;28;20208;-65
2022/12/24 05:16:47;;;;;;;11.93;3.73;;;13.30;99.90;;;;;;5009551;28;20212;-65
2022/12/24 05:19:13;;;;;;;14.53;3.70;;;13.40;99.90;;;;;;5010112;28;20322;-66
2022/12/24 05:21:41;;;;;;;8.97;3.10;;;13.30;99.90;;;;;;5012220;28;20237;-67
2022/12/24 05:26:56;;;;;;;16.37;4.00;;;13.30;99.90;;;;;;5012806;28;20594;-65
2022/12/24 05:29:23;;;;;;;23.03;4.47;;;13.30;99.90;;;;;;5013565;28;20443;-68
2022/12/24 05:31:48;;;;;;;13.53;3.20;;;13.30;99.90;;;;;;5014565;28;20961;-65
2022/12/24 05:34:15;;;;;;;11.93;3.20;;;13.30;99.90;;;;;;5016179;28;20467;-65
2022/12/24 05:36:41;;;;;;;12.33;3.20;;;13.20;99.90;;;;;;5011835;28;20878;-65
2022/12/24 05:39:07;;;;;;;8.93;2.70;;;13.20;99.90;;;;;;5009977;28;20519;-65
2022/12/24 05:41:33;;;;;;;14.73;3.53;;;13.10;99.90;;;;;;5011446;28;20534;-65
2022/12/24 05:43:58;;;;;;;22.53;4.23;;;13.10;99.90;;;;;;5008507;28;20595;-65
2022/12/24 05:46:24;;;;;;;15.97;3.23;;;13.10;99.90;;;;;;5010203;28;20544;-64
2022/12/24 05:48:51;;;;;;;18.13;3.30;;;13.10;99.90;;;;;;5013457;28;20186;-64
2022/12/24 05:51:18;;;;;;;12.40;3.10;;;13.10;99.90;;;;;;5010351;28;21088;-65
2022/12/24 05:53:45;;;;;;;15.00;3.87;;;13.20;99.90;;;;;;5012229;28;20515;-64
2022/12/24 05:56:14;;;;;;;15.63;3.93;;;13.20;99.90;;;;;;5011196;28;20459;-64
2022/12/24 05:58:40;;;;;;;10.87;3.03;;;13.20;99.90;;;;;;5010750;28;20488;-64
2022/12/24 06:01:06;;;;;;;15.40;3.43;;;13.30;99.90;;;;;;5015616;28;20514;-67
2022/12/24 06:03:33;;;;;;;6.87;2.77;;;13.20;99.90;;;;;;5014766;28;20917;-64
2022/12/24 06:06:02;;;;;;;8.03;3.03;;;13.20;99.90;;;;;;5012864;28;20327;-64
2022/12/24 06:08:28;;;;;;;11.30;3.43;;;13.20;99.90;;;;;;5009876;28;20442;-64
2022/12/24 06:10:59;;;;;;;11.30;3.40;;;13.20;99.90;;;;;;5014678;28;21099;-64
2022/12/24 06:13:25;;;;;;;15.50;3.97;;;13.10;99.90;;;;;;5008895;28;20463;-64
2022/12/24 06:15:54;;;;;;;12.60;3.67;;;13.20;99.90;;;;;;5018354;28;20891;-65
2022/12/24 06:18:20;;;;;;;18.07;3.63;;;13.20;99.90;;;;;;5012663;28;20432;-64
2022/12/24 06:20:48;;;;;;;13.33;3.37;;;13.20;99.90;;;;;;5013830;28;20496;-65
2022/12/24 06:23:14;;;;;;;12.90;3.07;;;13.20;99.90;;;;;;5019271;28;20177;-65
2022/12/24 06:25:39;;;;;;;10.67;3.27;;;13.20;99.90;;;;;;5017590;28;20891;-65
2022/12/24 06:28:05;;;;;;;9.20;3.13;;;13.30;99.90;;;;;;5011534;28;20627;-65
2022/12/24 06:30:30;;;;;;;9.67;3.70;;;13.30;99.90;;;;;;5013438;28;20192;-65
2022/12/24 06:32:56;;;;;;;13.03;3.77;;;13.40;99.90;;;;;;5017656;28;20204;-65
2022/12/24 06:35:21;;;;;;;20.50;4.13;;;13.40;99.90;;;;;;5013624;28;20184;-65
2022/12/24 06:37:47;;;;;;;11.50;3.80;;;13.40;99.90;;;;;;5013257;28;20460;-65
2022/12/24 06:40:13;;;;;;;15.67;2.83;;;13.40;99.90;;;;;;5019356;28;20185;-65
2022/12/24 06:42:38;;;;;;;15.30;5.50;;;13.40;99.90;;;;;;5017734;28;20192;-65
2022/12/24 06:45:04;;;;;;;15.00;3.67;;;13.30;99.90;;;;;;5016514;28;20208;-65
2022/12/24 06:47:30;;;;;;;17.40;3.53;;;13.30;99.90;;;;;;5019157;28;20805;-65
2022/12/24 06:49:55;;;;;;;16.70;3.80;;;13.40;99.90;;;;;;5024004;28;20521;-65
2022/12/24 06:52:21;;;;;;;13.30;3.40;;;13.30;99.90;;;;;;5018065;28;20288;-65
2022/12/24 06:54:46;;;;;;;10.03;2.80;;;13.30;99.90;;;;;;5019532;28;20215;-65
2022/12/24 06:57:12;;;;;;;13.83;3.80;;;13.20;99.90;;;;;;5016600;28;20224;-65
2022/12/24 06:59:37;;;;;;;21.73;5.83;;;13.20;99.90;;;;;;5018474;28;20185;-65
2022/12/24 07:02:03;;;;;;;15.57;3.00;;;13.20;99.90;;;;;;5017952;28;20263;-65
2022/12/24 07:04:29;;;;;;;16.77;3.57;;;13.10;99.90;;;;;;5021382;28;20215;-65
2022/12/24 07:06:55;;;;;;;16.00;3.90;;;13.10;99.90;;;;;;5015379;28;20232;-65
2022/12/24 07:09:20;;;;;;;22.20;4.23;;;13.20;99.90;;;;;;5018111;28;20571;-66
2022/12/24 07:11:46;;;;;;;10.40;3.63;;;13.20;99.90;;;;;;5022836;28;20291;-65
2022/12/24 07:14:11;;;;;;;14.70;4.43;;;13.10;99.90;;;;;;5017117;28;20305;-65
2022/12/24 07:16:37;;;;;;;15.20;4.00;;;13.20;99.90;;;;;;5015253;28;21012;-65
2022/12/24 07:19:02;;;;;;;12.63;2.87;;;13.20;99.90;;;;;;5009927;28;20657;-66
2022/12/24 07:21:28;;;;;;;10.30;3.50;;;13.10;99.90;;;;;;5011641;28;21513;-66
2022/12/24 07:23:53;;;;;;;8.90;3.23;;;13.00;99.90;;;;;;5013945;28;20196;-66
2022/12/24 07:26:19;;;;;;;13.27;3.73;;;13.10;99.90;;;;;;5014477;28;20212;-64
2022/12/24 07:28:44;;;;;;;10.73;3.97;;;13.10;99.90;;;;;;5018147;28;20180;-64
2022/12/24 07:31:10;;;;;;;11.80;3.33;;;13.00;99.90;;;;;;5015651;28;21257;-64
2022/12/24 07:33:35;;;;;;;13.20;3.67;;;12.90;99.90;;;;;;5015268;28;20657;-64
2022/12/24 07:36:06;;;;;;;21.50;3.53;;;12.90;99.90;;;;;;5010263;28;20286;-64
2022/12/24 07:38:32;;;;;;;22.97;4.47;;;12.90;99.90;;;;;;5015373;28;21191;-64
2022/12/24 07:40:58;;;;;;;16.70;4.17;;;12.80;99.90;;;;;;5017639;28;20447;-64
2022/12/24 07:43:26;;;;;;;21.17;4.23;;;12.90;99.90;;;;;;5013522;28;20990;-66
2022/12/24 07:45:55;;;;;;;10.50;3.67;;;12.90;99.90;;;;;;5009652;28;21236;-66
2022/12/24 07:48:21;;;;;;;16.97;4.27;;;12.90;99.90;;;;;;5020123;28;20546;-67
2022/12/24 07:50:48;;;;;;;14.50;4.43;;;12.90;99.90;;;;;;5012916;28;20443;-66
2022/12/24 07:53:14;;;;;;;15.53;3.27;;;13.00;99.90;;;;;;5016079;28;20485;-64
2022/12/24 07:55:40;;;;;;;14.53;3.73;;;13.00;99.90;;;;;;5012905;28;21034;-66
2022/12/24 07:58:05;;;;;;;11.80;3.40;;;13.00;99.90;;;;;;5008159;28;20921;-66
2022/12/24 08:00:31;;;;;;;14.57;3.70;;;13.00;99.90;;;;;;5019314;28;20184;-64
2022/12/24 08:02:58;;;;;;;13.10;3.80;;;13.00;99.90;;;;;;5013649;28;20264;-64
2022/12/24 08:05:25;;;;;;;13.23;3.53;;;13.10;99.90;;;;;;5015948;28;20876;-64
2022/12/24 08:07:51;;;;;;;17.50;4.47;;;13.10;99.90;;;;;;5011524;28;20530;-64
2022/12/24 08:10:17;;;;;;;8.77;4.10;;;13.10;99.90;;;;;;5014188;28;20502;-66
2022/12/24 08:12:42;;;;;;;20.47;3.63;;;13.20;99.90;;;;;;5010442;28;20196;-66
2022/12/24 08:15:08;;;;;;;9.67;3.50;;;13.20;99.90;;;;;;5012446;28;20231;-66
2022/12/24 08:17:34;;;;;;;13.10;3.00;;;13.30;99.90;;;;;;5006443;28;20178;-66
2022/12/24 08:19:59;;;;;;;19.97;5.00;;;13.30;99.90;;;;;;5014292;28;20527;-66
2022/12/24 08:22:25;;;;;;;15.90;3.37;;;13.30;99.90;;;;;;5014834;28;20561;-66
2022/12/24 08:24:50;;;;;;;16.40;4.43;;;13.20;99.90;;;;;;5014017;28;20682;-66
2022/12/24 08:27:16;;;;;;;16.33;5.07;;;13.20;99.90;;;;;;5012617;28;20196;-65
2022/12/24 08:29:41;;;;;;;12.97;3.60;;;13.40;99.90;;;;;;5010607;28;20203;-64
2022/12/24 08:32:07;;;;;;;8.57;2.90;;;13.40;99.90;;;;;;5011009;28;20184;-66
2022/12/24 08:34:33;;;;;;;12.23;3.97;;;13.30;99.90;;;;;;5015614;28;20584;-66
2022/12/24 08:36:58;;;;;;;12.17;3.53;;;13.40;99.90;;;;;;5013915;28;20307;-66
2022/12/24 08:39:24;;;;;;;15.17;5.47;;;13.40;99.90;;;;;;5010811;28;20189;-64
2022/12/24 08:41:49;;;;;;;14.43;4.07;;;13.40;99.90;;;;;;5016742;28;20595;-64
2022/12/24 08:44:15;;;;;;;14.27;4.20;;;13.40;99.90;;;;;;5010832;28;20664;-64
2022/12/24 08:46:40;;;;;;;15.67;4.10;;;13.40;99.90;;;;;;5011409;28;20611;-64
2022/12/24 08:49:06;;;;;;;15.73;3.47;;;13.40;99.90;;;;;;5016309;28;20713;-65
2022/12/24 08:51:31;;;;;;;12.30;3.23;;;13.50;99.90;;;;;;5013454;28;20590;-64
2022/12/24 08:53:57;;;;;;;12.33;3.93;;;13.40;99.90;;;;;;5012970;28;20222;-65
2022/12/24 08:56:23;;;;;;;13.97;5.10;;;13.40;99.90;;;;;;5012363;28;20715;-65
2022/12/24 08:58:48;;;;;;;12.40;3.93;;;13.30;99.90;;;;;;5013131;28;20198;-65
2022/12/24 09:01:17;;;;;;;8.60;3.30;;;13.40;99.90;;;;;;5007145;28;20316;-65
2022/12/24 09:03:42;;;;;;;14.33;5.17;;;13.40;99.90;;;;;;5017085;28;20318;-66
2022/12/24 09:06:08;;;;;;;11.93;3.80;;;13.30;99.90;;;;;;5030542;28;20459;-65
2022/12/24 09:08:35;;;;;;;10.70;3.03;;;13.30;99.90;;;;;;5010935;28;20283;-64
2022/12/24 09:11:11;;;;;;;11.47;3.70;;;13.30;99.90;;;;;;5012559;28;20466;-65
2022/12/24 09:13:37;;;;;;;12.60;3.17;;;13.30;99.90;;;;;;5010079;28;20470;-68
2022/12/24 09:16:04;;;;;;;13.07;2.83;;;13.30;99.90;;;;;;5011483;28;20479;-65
2022/12/24 09:18:29;;;;;;;14.77;3.23;;;13.30;99.90;;;;;;5009713;28;20532;-66
2022/12/24 09:21:06;;;;;;;8.73;2.80;;;13.40;99.90;;;;;;5014312;28;20869;-65
2022/12/24 09:23:35;;;;;;;14.10;3.80;;;13.40;99.90;;;;;;5005902;28;20665;-65
2022/12/24 09:26:07;;;;;;;8.03;2.93;;;13.40;99.90;;;;;;5013521;28;20455;-65
2022/12/24 09:28:33;;;;;;;10.57;3.20;;;13.40;99.90;;;;;;5009489;28;20887;-65
2022/12/24 09:31:01;;;;;;;13.90;4.10;;;13.30;99.90;;;;;;5010820;28;20488;-65
2022/12/24 09:33:29;;;;;;;14.67;3.50;;;13.30;99.90;;;;;;5008631;28;20239;-65
2022/12/24 09:35:55;;;;;;;11.10;3.83;;;13.30;99.90;;;;;;5012453;28;20463;-65
2022/12/24 09:38:21;;;;;;;20.03;4.10;;;13.20;99.90;;;;;;5006366;28;20442;-65
2022/12/24 09:40:48;;;;;;;10.70;3.10;;;13.10;99.90;;;;;;5011773;28;20182;-65
2022/12/24 09:43:19;;;;;;;11.63;3.67;;;13.10;99.90;;;;;;5016321;28;20443;-65
2022/12/24 09:46:09;;;;;;;11.83;3.03;;;13.10;99.90;;;;;;5010648;28;20976;-65
2022/12/24 09:48:42;;;;;;;18.50;3.50;;;13.10;99.90;;;;;;5012719;28;20443;-65
2022/12/24 09:51:10;;;;;;;14.63;4.17;;;13.00;99.90;;;;;;5012822;28;20478;-64
2022/12/24 09:53:35;;;;;;;22.30;5.93;;;13.00;99.90;;;;;;5009255;28;20993;-64
2022/12/24 09:56:06;;;;;;;15.53;3.80;;;12.90;99.90;;;;;;5016087;28;20459;-64
2022/12/24 09:58:49;;;;;;;22.10;4.43;;;13.00;99.90;;;;;;5026839;28;20181;-64
2022/12/24 10:01:17;;;;;;;15.37;4.70;;;12.90;99.90;;;;;;5017028;28;20822;-64
2022/12/24 10:03:43;;;;;;;8.73;3.67;;;12.90;99.90;;;;;;5015080;28;20439;-64
2022/12/24 10:06:38;;;;;;;12.80;4.17;;;12.90;99.90;;;;;;5012243;28;20571;-64
2022/12/24 10:09:30;;;;;;;14.50;3.83;;;12.90;99.90;;;;;;5011904;28;20454;-64
2022/12/24 10:12:14;;;;;;;16.40;3.83;;;12.90;99.90;;;;;;5010977;28;20543;-64
2022/12/24 10:14:58;;;;;;;17.77;3.80;;;12.70;99.90;;;;;;5013362;28;20442;-64
2022/12/24 10:17:39;;;;;;;16.83;5.10;;;12.70;99.90;;;;;;5010481;28;20549;-64
2022/12/24 10:20:24;;;;;;;13.57;4.33;;;12.80;99.90;;;;;;5009475;28;20928;-65
2022/12/24 10:23:04;;;;;;;19.10;3.93;;;12.70;99.90;;;;;;5010751;28;20480;-66
2022/12/24 10:25:51;;;;;;;12.87;3.97;;;12.50;99.90;;;;;;5017140;28;20825;-65
2022/12/24 10:28:59;;;;;;;18.47;4.50;;;12.40;99.90;;;;;;5013439;28;20446;-64
2022/12/24 10:31:38;;;;;;;13.77;4.13;;;12.40;99.90;;;;;;4974406;28;20456;-65
2022/12/24 10:34:27;;;;;;;12.50;4.10;;;12.40;99.90;;;;;;4974534;28;20472;-65
2022/12/24 10:36:52;;;;;;;11.67;4.63;;;12.40;99.90;;;;;;5002012;28;20468;-65
2022/12/24 10:39:23;;;;;;;18.73;4.63;;;12.40;99.90;;;;;;5010732;28;20435;-65
2022/12/24 10:41:51;;;;;;;13.07;3.87;;;12.40;99.90;;;;;;4998457;28;20188;-66
2022/12/24 10:44:21;;;;;;;16.97;4.73;;;12.40;99.90;;;;;;5017770;28;20493;-66
2022/12/24 10:46:47;;;;;;;16.77;3.70;;;12.50;99.90;;;;;;5017538;28;20481;-67
2022/12/24 10:49:24;;;;;;;13.27;3.67;;;12.50;99.90;;;;;;5013868;28;20451;-66
2022/12/24 10:51:54;;;;;;;7.33;3.90;;;12.50;99.90;;;;;;5016793;28;20559;-66
2022/12/24 10:54:25;;;;;;;11.20;4.50;;;12.50;99.90;;;;;;5013301;28;20570;-66
2022/12/24 10:56:55;;;;;;;25.27;7.10;;;12.60;99.90;;;;;;5010642;28;21192;-65
2022/12/24 10:59:50;;;;;;;15.10;5.20;;;12.70;99.90;;;;;;5017224;28;20436;-64
2022/12/24 11:02:37;;;;;;;16.67;3.80;;;12.70;99.90;;;;;;5017191;28;20948;-64
2022/12/24 11:05:29;;;;;;;12.73;4.67;;;12.80;99.90;;;;;;5021091;28;21160;-64
2022/12/24 11:08:03;;;;;;;15.70;4.50;;;12.70;99.90;;;;;;5014581;28;21479;-65
2022/12/24 11:10:30;;;;;;;20.80;6.60;;;12.90;99.90;;;;;;5019196;28;20982;-64
2022/12/24 11:12:55;;;;;;;13.90;3.97;;;12.90;99.90;;;;;;5019565;28;20516;-64
2022/12/24 11:15:30;;;;;;;16.40;4.10;;;12.90;99.90;;;;;;5016038;28;20462;-64
2022/12/24 11:18:13;;;;;;;12.30;4.33;;;13.00;99.90;;;;;;5013090;28;20203;-64
2022/12/24 11:20:39;;;;;;;14.73;4.07;;;13.10;99.90;;;;;;5013228;28;20436;-64
2022/12/24 11:23:05;;;;;;;14.80;4.80;;;13.00;99.90;;;;;;5014361;28;20493;-64
2022/12/24 11:25:32;;;;;;;13.60;4.73;;;13.00;99.90;;;;;;5016144;28;20462;-65
2022/12/24 11:28:22;;;;;;;14.83;4.57;;;13.00;99.90;;;;;;5014477;28;20814;-65
2022/12/24 11:31:16;;;;;;;10.80;4.50;;;13.00;99.90;;;;;;5011400;28;20524;-65
2022/12/24 11:33:48;;;;;;;14.13;5.13;;;13.10;99.90;;;;;;5016604;28;20988;-65
2022/12/24 11:36:18;;;;;;;17.27;4.50;;;13.00;99.90;;;;;;5017211;28;20550;-64
2022/12/24 11:38:53;;;;;;;12.43;3.70;;;13.10;99.90;;;;;;5016212;28;20534;-64
2022/12/24 11:41:18;;;;;;;18.97;3.53;;;13.10;99.90;;;;;;5016772;28;20937;-64
2022/12/24 11:43:47;;;;;;;18.77;4.87;;;13.20;99.90;;;;;;5017121;28;20534;-64
2022/12/24 11:46:17;;;;;;;13.57;5.07;;;13.20;99.90;;;;;;5015146;28;20661;-65
2022/12/24 11:48:42;;;;;;;11.90;3.50;;;13.30;99.90;;;;;;5016152;28;20518;-65
2022/12/24 11:51:20;;;;;;;15.57;4.43;;;13.10;99.90;;;;;;5019775;28;20516;-65
2022/12/24 11:54:03;;;;;;;24.73;4.73;;;13.30;99.90;;;;;;5016437;28;20216;-64
2022/12/24 11:56:47;;;;;;;19.60;4.20;;;13.30;99.90;;;;;;5014802;28;20498;-65
2022/12/24 11:59:25;;;;;;;14.10;4.07;;;13.40;99.90;;;;;;5011653;28;20447;-65
2022/12/24 12:02:15;;;;;;;10.50;4.50;;;13.40;99.90;;;;;;5012034;28;21125;-65
2022/12/24 12:04:43;;;;;;;17.60;4.17;;;13.40;99.90;;;;;;5013528;28;20483;-65
2022/12/24 12:07:24;;;;;;;13.23;4.10;;;13.50;99.90;;;;;;5016789;28;20458;-65
2022/12/24 12:09:58;;;;;;;17.40;5.10;;;13.50;99.90;;;;;;5015730;28;20526;-64
2022/12/24 12:12:28;;;;;;;12.63;4.53;;;13.60;99.90;;;;;;5009944;28;20447;-63
2022/12/24 12:14:59;;;;;;;13.60;6.00;;;13.70;99.90;;;;;;5016951;28;20419;-65
2022/12/24 12:17:55;;;;;;;19.37;5.27;;;13.70;99.90;;;;;;5016181;28;20477;-67
2022/12/24 12:20:34;;;;;;;16.83;4.30;;;13.60;99.90;;;;;;5014078;28;20956;-66
2022/12/24 12:23:18;;;;;;;18.23;8.13;;;13.90;99.90;;;;;;5015135;28;20516;-66
2022/12/24 12:26:07;;;;;;;18.37;5.40;;;14.20;99.90;;;;;;5019313;28;21093;-66
2022/12/24 12:28:57;;;;;;;15.50;4.03;;;14.40;99.90;;;;;;5006292;28;20440;-66
2022/12/24 12:31:34;;;;;;;11.33;5.23;;;14.40;99.90;;;;;;5009597;28;20920;-66
2022/12/24 12:34:26;;;;;;;17.17;4.67;;;14.40;99.90;;;;;;5009500;28;20940;-66
2022/12/24 12:37:12;;;;;;;18.83;5.70;;;14.30;99.90;;;;;;4995194;28;21134;-65
2022/12/24 12:39:38;;;;;;;16.70;6.33;;;14.40;99.90;;;;;;5012085;28;20440;-65
2022/12/24 12:42:29;;;;;;;17.63;6.83;;;14.30;99.90;;;;;;5007835;28;20449;-65
2022/12/24 12:45:13;;;;;;;20.90;5.77;;;14.20;99.90;;;;;;5012504;28;20196;-65
2022/12/24 12:48:04;;;;;;;16.60;5.77;;;14.00;99.90;;;;;;5014204;28;20526;-65
2022/12/24 12:50:39;;;;;;;10.57;4.70;;;14.10;99.90;;;;;;5013931;28;20997;-65
2022/12/24 12:53:29;;;;;;;18.20;5.47;;;14.10;99.90;;;;;;5017095;28;20461;-65
2022/12/24 12:56:36;;;;;;;10.93;5.97;;;14.10;99.90;;;;;;5010922;28;20536;-65
2022/12/24 12:59:04;;;;;;;16.23;5.57;;;14.10;99.90;;;;;;5010053;28;20551;-65
2022/12/24 13:01:50;;;;;;;9.63;4.27;;;14.00;99.90;;;;;;5012991;28;20439;-65
2022/12/24 13:05:05;;;;;;;9.23;4.30;;;14.00;99.90;;;;;;5009789;28;20423;-64